Time;durP1;ratioP1;P1;durP2;ratioP2;P2;SDS_P1;SDS_P2;PMS_P1;PMS_P2;Temp;Humidity;BMP_temperature;BMP_pressure;BME280_temperature;BME280_humidity;BME280_pressure;Samples;Min_cycle;Max_cycle;Signal;HPM_P1;HPM_P2
2020/12/02 00:01:06;;;;;;;78.43;39.23;;;;;;;-3.27;73.08;99665.19;2161951;82;21233;-74
2020/12/02 00:04:09;;;;;;;83.23;38.97;;;;;;;-3.26;73.48;99666.59;2162081;82;21519;-74
2020/12/02 00:10:44;;;;;;;77.53;39.43;;;;;;;-3.28;73.03;99671.06;2162098;82;21280;-75
2020/12/02 00:13:45;;;;;;;75.07;36.70;;;;;;;-3.32;72.80;99671.21;2161907;82;21286;-75
2020/12/02 00:16:47;;;;;;;80.67;37.33;;;;;;;-3.33;72.87;99671.98;2162190;82;21230;-74
2020/12/02 00:19:48;;;;;;;105.50;37.57;;;;;;;-3.37;72.48;99676.34;2161965;82;21238;-74
2020/12/02 00:22:49;;;;;;;78.87;38.20;;;;;;;-3.42;72.15;99679.30;2162142;82;21237;-75
2020/12/02 00:25:50;;;;;;;78.47;37.80;;;;;;;-3.49;72.11;99679.16;2162109;82;21291;-75
2020/12/02 00:28:51;;;;;;;74.87;37.37;;;;;;;-3.54;72.36;99680.45;2162038;82;21507;-75
2020/12/02 00:31:52;;;;;;;73.17;36.53;;;;;;;-3.54;72.16;99686.84;2162013;82;21253;-75
2020/12/02 00:34:53;;;;;;;72.37;35.23;;;;;;;-3.62;71.86;99684.06;2161337;82;21515;-75
2020/12/02 00:37:54;;;;;;;67.60;34.73;;;;;;;-3.68;71.77;99682.29;2161569;82;21214;-75
2020/12/02 00:40:55;;;;;;;76.33;37.40;;;;;;;-3.78;71.53;99679.38;2161431;82;21237;-75
2020/12/02 00:43:56;;;;;;;72.87;35.57;;;;;;;-3.86;71.42;99685.14;2161522;82;21102;-74
2020/12/02 00:46:57;;;;;;;74.17;37.33;;;;;;;-3.92;71.22;99689.74;2161046;82;21214;-75
2020/12/02 00:49:58;;;;;;;78.77;36.90;;;;;;;-3.99;71.30;99690.02;2160694;82;21282;-75
2020/12/02 00:52:59;;;;;;;80.70;37.67;;;;;;;-4.02;71.32;99694.86;2159865;82;21068;-76
2020/12/02 00:56:00;;;;;;;79.00;37.57;;;;;;;-4.01;71.26;99694.48;2161271;82;21233;-75
2020/12/02 00:59:01;;;;;;;76.70;37.77;;;;;;;-4.01;70.89;99694.09;2172230;81;21174;-74
2020/12/02 01:02:02;;;;;;;81.17;39.17;;;;;;;-4.08;70.89;99691.81;2178909;81;21220;-75
2020/12/02 01:05:03;;;;;;;84.73;38.23;;;;;;;-4.12;70.80;99692.70;2178975;81;21396;-75
2020/12/02 01:08:05;;;;;;;91.80;40.17;;;;;;;-4.13;70.75;99692.20;2179421;81;21094;-75
2020/12/02 01:11:06;;;;;;;79.90;38.37;;;;;;;-4.15;70.74;99690.80;2179378;81;21161;-74
2020/12/02 01:14:07;;;;;;;97.07;38.33;;;;;;;-4.20;70.50;99690.80;2178920;81;21130;-75
2020/12/02 01:17:08;;;;;;;96.43;39.13;;;;;;;-4.24;70.86;99692.59;2178995;81;21241;-75
2020/12/02 01:20:09;;;;;;;86.10;37.20;;;;;;;-3.41;75.08;99688.36;2178786;81;21211;-75
2020/12/02 01:23:10;;;;;;;89.03;36.53;;;;;;;-3.38;70.60;99682.22;2178695;81;21117;-76
2020/12/02 01:26:11;;;;;;;84.73;40.30;;;;;;;-3.64;69.52;99683.05;2178549;81;21376;-75
2020/12/02 01:29:12;;;;;;;83.03;39.83;;;;;;;-3.95;69.29;99675.47;2179257;81;21396;-75
2020/12/02 01:32:16;;;;;;;102.27;46.53;;;;;;;-4.12;69.62;99685.95;2179300;81;21106;-75
2020/12/02 01:35:17;;;;;;;98.85;44.13;;;;;;;-4.20;70.02;99686.98;2179638;81;21245;-75
2020/12/02 01:38:18;;;;;;;93.30;41.43;;;;;;;-4.28;69.67;99683.80;2179217;81;21082;-75
2020/12/02 01:41:19;;;;;;;85.27;38.80;;;;;;;-4.41;69.53;99680.96;2179292;81;21078;-75
2020/12/02 01:44:20;;;;;;;85.93;40.77;;;;;;;-4.50;69.61;99679.81;2179507;81;21102;-76
2020/12/02 01:47:21;;;;;;;89.20;38.60;;;;;;;-4.51;69.58;99681.86;2179805;81;21264;-75
2020/12/02 01:50:22;;;;;;;94.07;39.40;;;;;;;-4.53;69.40;99677.39;2179467;81;21448;-75
2020/12/02 01:53:26;;;;;;;92.00;41.20;;;;;;;-4.57;69.51;99681.72;2179244;81;21154;-75
2020/12/02 01:56:27;;;;;;;120.73;53.40;;;;;;;-4.55;69.70;99678.54;2179485;81;21118;-75
2020/12/02 01:59:28;;;;;;;129.27;55.23;;;;;;;-4.47;69.89;99677.02;2179232;81;21292;-75
2020/12/02 02:02:30;;;;;;;102.87;46.07;;;;;;;-4.36;70.21;99682.62;2179222;81;21114;-75
2020/12/02 02:05:30;;;;;;;114.60;47.53;;;;;;;-4.26;69.79;99695.02;2179107;81;21110;-75
2020/12/02 02:08:32;;;;;;;124.37;51.23;;;;;;;-4.20;69.90;99689.14;2178738;81;21384;-74
2020/12/02 02:11:33;;;;;;;129.47;56.07;;;;;;;-4.11;69.84;99689.01;2178979;81;21185;-75
2020/12/02 02:14:34;;;;;;;129.93;54.43;;;;;;;-4.05;70.11;99690.78;2179230;81;21145;-75
2020/12/02 02:17:35;;;;;;;129.73;55.70;;;;;;;-3.92;70.26;99683.75;2179495;81;21075;-75
2020/12/02 02:20:36;;;;;;;121.67;56.27;;;;;;;-3.82;70.10;99677.35;2179232;81;21400;-75
2020/12/02 02:23:40;;;;;;;116.90;51.70;;;;;;;-3.72;70.11;99678.98;2179493;81;21114;-75
2020/12/02 02:26:41;;;;;;;86.70;40.77;;;;;;;-3.65;70.63;99675.77;2179727;81;21086;-75
2020/12/02 02:29:46;;;;;;;80.83;36.57;;;;;;;-3.49;72.03;99677.89;2179297;82;21110;-74
2020/12/02 02:32:45;;;;;;;63.50;31.07;;;;;;;-3.30;72.82;99677.72;2179295;82;21121;-74
2020/12/02 02:35:46;;;;;;;75.63;35.63;;;;;;;-0.65;80.95;99668.92;2179338;81;21526;-74
2020/12/02 02:38:47;;;;;;;69.50;31.07;;;;;;;-0.52;71.73;99671.05;2179451;81;21082;-74
2020/12/02 02:41:48;;;;;;;70.57;34.93;;;;;;;-0.99;70.92;99667.34;2179712;81;21233;-75
2020/12/02 02:44:49;;;;;;;63.33;31.87;;;;;;;-1.35;71.12;99663.97;2179605;81;21529;-75
2020/12/02 02:47:50;;;;;;;65.90;31.67;;;;;;;-1.57;71.31;99668.34;2179654;81;21103;-75
2020/12/02 02:50:51;;;;;;;59.97;28.50;;;;;;;-1.80;71.88;99664.47;2179603;81;21272;-75
2020/12/02 02:53:54;;;;;;;52.40;27.60;;;;;;;-1.96;72.51;99663.34;2179525;81;21207;-74
2020/12/02 02:56:55;;;;;;;65.47;33.80;;;;;;;-2.10;72.81;99670.39;2179402;81;21393;-74
2020/12/02 03:00:00;;;;;;;62.23;32.63;;;;;;;-2.16;73.16;99666.48;2166473;81;21277;-74
2020/12/02 03:03:02;;;;;;;65.35;32.58;;;;;;;-2.16;73.33;99669.05;2162086;82;21237;-73
2020/12/02 03:06:03;;;;;;;57.57;28.47;;;;;;;-2.19;73.48;99664.59;2162437;82;21389;-74
2020/12/02 03:09:04;;;;;;;63.97;31.77;;;;;;;-2.19;73.57;99664.59;2161918;82;21253;-74
2020/12/02 03:12:08;;;;;;;58.87;29.33;;;;;;;-2.18;73.61;99667.66;2161999;82;21146;-74
2020/12/02 03:15:09;;;;;;;58.83;28.62;;;;;;;-2.16;73.74;99669.94;2162173;82;21229;-73
2020/12/02 03:18:10;;;;;;;59.27;30.37;;;;;;;-2.18;73.86;99669.32;2161968;82;21225;-73
2020/12/02 03:21:11;;;;;;;47.33;24.03;;;;;;;-2.25;74.02;99667.97;2162359;82;21118;-73
2020/12/02 03:24:12;;;;;;;66.13;34.00;;;;;;;-2.31;74.07;99668.41;2162005;82;21500;-75
2020/12/02 03:27:13;;;;;;;100.30;29.30;;;;;;;-2.35;74.08;99668.06;2162434;82;21122;-72
2020/12/02 03:30:15;;;;;;;53.77;29.53;;;;;;;-2.46;74.44;99665.98;2161860;82;21437;-74
2020/12/02 03:33:16;;;;;;;62.73;31.00;;;;;;;-2.46;74.44;99665.98;2161326;82;21236;-75
2020/12/02 03:36:17;;;;;;;50.37;24.57;;;;;;;-2.57;74.90;99667.72;2161624;82;21119;-75
2020/12/02 03:39:18;;;;;;;53.57;28.87;;;;;;;-2.58;74.80;99668.50;2161661;82;21237;-77
2020/12/02 03:42:19;;;;;;;50.33;24.87;;;;;;;-2.60;75.14;99670.05;2162173;82;21103;-74
2020/12/02 03:45:20;;;;;;;114.07;30.47;;;;;;;-2.09;74.79;99673.45;2161743;82;21258;-73
2020/12/02 03:48:21;;;;;;;44.43;21.33;;;;;;;-1.66;76.02;99676.63;2161519;82;21750;-75
2020/12/02 03:51:22;;;;;;;47.27;24.90;;;;;;;-1.73;73.72;99674.41;2161392;82;21170;-73
2020/12/02 03:54:23;;;;;;;54.37;29.63;;;;;;;-1.96;73.61;99667.19;2161582;82;21122;-74
2020/12/02 03:57:24;;;;;;;48.97;26.60;;;;;;;-2.05;73.74;99675.45;2162040;82;21226;-74
2020/12/02 04:00:25;;;;;;;51.73;26.07;;;;;;;-2.10;73.86;99674.23;2176028;81;21281;-74
2020/12/02 04:03:26;;;;;;;53.67;27.87;;;;;;;-2.20;74.10;99680.72;2179294;81;21376;-74
2020/12/02 04:06:27;;;;;;;45.63;24.70;;;;;;;-2.31;74.26;99684.14;2178843;81;21134;-74
2020/12/02 04:09:29;;;;;;;47.73;24.90;;;;;;;-2.34;74.44;99680.07;2179356;81;21086;-73
2020/12/02 04:12:30;;;;;;;42.47;24.10;;;;;;;-2.23;74.42;99686.88;2179566;81;21503;-74
2020/12/02 04:15:31;;;;;;;45.43;25.27;;;;;;;-2.29;74.32;99690.26;2179253;82;21115;-74
2020/12/02 04:18:35;;;;;;;51.27;27.57;;;;;;;-2.43;74.44;99690.88;2179562;81;21392;-73
2020/12/02 04:21:36;;;;;;;45.60;23.87;;;;;;;-2.53;74.79;99688.41;2178861;81;21114;-73
2020/12/02 04:24:37;;;;;;;48.53;25.17;;;;;;;-2.57;74.91;99694.56;2178446;81;21114;-74
2020/12/02 04:27:38;;;;;;;45.37;25.53;;;;;;;-2.57;74.93;99702.23;2178578;81;21110;-74
2020/12/02 04:30:39;;;;;;;49.27;24.93;;;;;;;-2.59;75.10;99697.39;2178364;81;21161;-74
2020/12/02 04:33:40;;;;;;;48.13;25.77;;;;;;;-2.63;75.36;99703.00;2178277;81;21142;-74
2020/12/02 04:36:41;;;;;;;49.53;27.87;;;;;;;-2.70;75.39;99712.25;2178671;81;21236;-73
2020/12/02 04:39:42;;;;;;;41.27;22.70;;;;;;;-2.69;75.37;99715.70;2177848;81;21102;-73
2020/12/02 04:42:43;;;;;;;53.77;26.00;;;;;;;-2.66;75.22;99715.55;2177472;81;21114;-73
2020/12/02 04:45:44;;;;;;;46.73;25.80;;;;;;;-2.60;75.38;99711.33;2176672;81;21280;-74
2020/12/02 04:48:45;;;;;;;46.03;25.20;;;;;;;-2.60;75.25;99703.27;2176756;81;21578;-73
2020/12/02 04:51:46;;;;;;;42.97;24.67;;;;;;;-2.57;75.34;99712.45;2176621;81;21366;-74
2020/12/02 04:54:47;;;;;;;36.90;21.10;;;;;;;-2.59;75.12;99710.17;2176297;81;21268;-73
2020/12/02 04:57:48;;;;;;;42.07;22.90;;;;;;;-2.67;75.19;99708.66;2176850;81;21241;-73
2020/12/02 05:00:49;;;;;;;42.53;23.30;;;;;;;-2.67;75.43;99714.16;2175619;81;21590;-73
2020/12/02 05:03:50;;;;;;;39.70;22.67;;;;;;;-2.64;75.40;99710.55;2175299;81;21248;-74
2020/12/02 05:06:54;;;;;;;40.10;23.13;;;;;;;-2.65;75.29;99705.83;2175646;81;21817;-74
2020/12/02 05:09:55;;;;;;;45.10;25.17;;;;;;;-2.62;75.32;99712.84;2176102;81;21304;-74
2020/12/02 05:12:56;;;;;;;43.30;25.20;;;;;;;-2.44;76.07;99719.39;2177140;81;21519;-74
2020/12/02 05:15:57;;;;;;;39.90;22.60;;;;;;;-2.32;75.14;99716.49;2175198;81;21091;-73
2020/12/02 05:18:58;;;;;;;39.13;21.90;;;;;;;-2.25;74.96;99710.17;2176091;81;21245;-73
2020/12/02 05:21:59;;;;;;;39.13;20.37;;;;;;;-2.29;74.74;99714.55;2176683;81;21892;-74
2020/12/02 05:25:00;;;;;;;43.23;24.77;;;;;;;-2.30;74.73;99713.66;2176923;81;21288;-74
2020/12/02 05:28:01;;;;;;;40.80;23.77;;;;;;;-2.35;74.72;99712.81;2175845;81;21756;-73
2020/12/02 05:31:03;;;;;;;47.17;25.20;;;;;;;-2.38;74.87;99705.80;2176198;81;21169;-73
2020/12/02 05:34:04;;;;;;;39.63;21.27;;;;;;;-2.34;74.94;99710.75;2176787;81;21264;-74
2020/12/02 05:37:05;;;;;;;47.13;24.20;;;;;;;-2.32;74.88;99715.21;2175795;81;21103;-73
2020/12/02 05:40:06;;;;;;;46.23;26.30;;;;;;;-2.33;74.83;99712.53;2176964;81;21134;-77
2020/12/02 05:43:07;;;;;;;36.80;23.57;;;;;;;-2.27;75.05;99718.12;2176717;82;21241;-77
2020/12/02 05:46:08;;;;;;;47.40;26.67;;;;;;;-2.18;74.96;99711.14;2176652;81;21244;-77
2020/12/02 05:49:09;;;;;;;44.87;24.17;;;;;;;-2.12;74.86;99715.82;2177030;81;21538;-77
2020/12/02 05:52:10;;;;;;;42.30;26.00;;;;;;;-2.06;74.71;99708.22;2176421;81;21276;-77
2020/12/02 05:55:11;;;;;;;47.30;24.13;;;;;;;-1.98;74.65;99716.08;2175980;81;21240;-77
2020/12/02 05:58:12;;;;;;;51.50;24.73;;;;;;;-1.89;74.59;99714.97;2175955;81;21261;-76
2020/12/02 06:01:16;;;;;;;39.23;23.07;;;;;;;-1.83;74.21;99709.92;2175730;81;21263;-79
2020/12/02 06:04:17;;;;;;;34.43;20.43;;;;;;;-1.92;73.80;99718.20;2176640;81;21240;-77
2020/12/02 06:07:18;;;;;;;38.10;21.93;;;;;;;-2.01;74.06;99718.80;2176320;81;21154;-77
2020/12/02 06:10:19;;;;;;;37.73;22.77;;;;;;;-2.10;74.25;99718.11;2175668;81;21307;-78
2020/12/02 06:13:20;;;;;;;38.07;22.13;;;;;;;-2.11;74.43;99717.60;2175682;81;21137;-80
2020/12/02 06:16:21;;;;;;;39.57;23.83;;;;;;;-2.06;74.43;99713.72;2176765;81;21272;-79
2020/12/02 06:19:22;;;;;;;37.47;22.27;;;;;;;-2.05;74.24;99716.39;2176158;81;21260;-78
2020/12/02 06:22:24;;;;;;;33.03;19.83;;;;;;;-2.14;74.13;99709.31;2175882;82;21109;-77
2020/12/02 06:25:25;;;;;;;31.67;18.90;;;;;;;-2.17;74.23;99712.92;2176309;81;21240;-78
2020/12/02 06:28:26;;;;;;;38.97;23.33;;;;;;;-2.15;74.38;99716.88;2175595;81;21515;-77
2020/12/02 06:31:27;;;;;;;46.27;25.43;;;;;;;-2.17;74.29;99720.59;2175816;81;21296;-78
2020/12/02 06:34:28;;;;;;;42.40;23.30;;;;;;;-2.18;74.15;99717.53;2175914;81;21244;-77
2020/12/02 06:37:29;;;;;;;40.70;22.47;;;;;;;-2.15;74.27;99724.16;2176398;82;21209;-78
2020/12/02 06:40:30;;;;;;;36.60;22.10;;;;;;;;;;2176036;81;21277;-78
2020/12/02 06:43:34;;;;;;;40.50;19.53;;;;;;;-2.08;74.22;99718.72;2175547;82;21288;-77
2020/12/02 06:46:35;;;;;;;35.27;20.40;;;;;;;-2.00;74.16;99712.51;2176405;81;21767;-78
2020/12/02 06:49:36;;;;;;;31.77;19.93;;;;;;;-2.03;73.85;99717.78;2176483;81;21608;-78
2020/12/02 06:52:37;;;;;;;42.13;23.00;;;;;;;-2.08;73.81;99707.59;2175957;81;21249;-78
2020/12/02 06:55:38;;;;;;;35.07;20.70;;;;;;;-2.09;74.03;99713.10;2176255;82;21244;-78
2020/12/02 06:58:39;;;;;;;36.57;22.07;;;;;;;-2.08;73.88;99716.55;2175798;81;21646;-77
2020/12/02 07:01:42;;;;;;;36.87;20.83;;;;;;;-2.07;73.98;99714.50;2175872;81;21280;-81
2020/12/02 07:04:43;;;;;;;38.00;21.67;;;;;;;-1.98;74.04;99723.75;2175207;82;21302;-79
2020/12/02 07:07:44;;;;;;;31.67;17.53;;;;;;;-1.99;73.62;99717.23;2174485;82;21268;-78
2020/12/02 07:10:45;;;;;;;38.63;20.70;;;;;;;-2.02;73.66;99721.73;2174856;81;21303;-79
2020/12/02 07:13:46;;;;;;;39.53;22.27;;;;;;;-2.03;73.80;99726.35;2175382;81;21241;-78
2020/12/02 07:16:47;;;;;;;34.43;19.23;;;;;;;-2.07;73.75;99715.39;2175647;81;21245;-77
2020/12/02 07:19:48;;;;;;;40.50;23.00;;;;;;;-2.04;73.88;99716.00;2175288;81;21558;-77
2020/12/02 07:22:49;;;;;;;94.03;49.13;;;;;;;-1.97;73.91;99728.09;2176188;81;21240;-78
2020/12/02 07:25:51;;;;;;;40.23;22.63;;;;;;;-1.88;73.80;99718.92;2176954;81;21272;-78
2020/12/02 07:28:52;;;;;;;39.43;23.23;;;;;;;-1.79;73.66;99722.16;2176465;81;21257;-79
2020/12/02 07:31:53;;;;;;;33.53;18.50;;;;;;;-1.71;73.38;99725.32;2176090;81;21280;-79
2020/12/02 07:34:54;;;;;;;36.27;20.43;;;;;;;-1.71;73.36;99720.20;2176094;81;21244;-79
2020/12/02 07:37:55;;;;;;;48.23;24.07;;;;;;;-1.74;73.38;99719.94;2176046;81;21600;-76
2020/12/02 07:40:59;;;;;;;38.63;21.07;;;;;;;-1.74;73.55;99723.78;2176113;81;21263;-78
2020/12/02 07:44:00;;;;;;;42.00;24.27;;;;;;;-1.69;73.45;99722.48;2175818;81;21233;-79
2020/12/02 07:47:01;;;;;;;39.77;22.87;;;;;;;-1.75;73.49;99717.77;2175470;82;21310;-77
2020/12/02 07:50:02;;;;;;;39.63;23.27;;;;;;;-1.69;73.78;99719.92;2176281;81;21284;-77
2020/12/02 07:53:03;;;;;;;46.80;22.07;;;;;;;-1.61;73.64;99720.09;2175956;81;21268;-80
2020/12/02 07:56:05;;;;;;;47.37;26.47;;;;;;;-1.54;73.72;99717.20;2177353;81;21237;-79
2020/12/02 07:59:07;;;;;;;42.90;23.23;;;;;;;-1.45;73.60;99711.86;2177370;81;21264;-79
2020/12/02 08:02:08;;;;;;;48.37;25.87;;;;;;;-1.54;73.34;99715.92;2162828;81;21300;-78
2020/12/02 08:05:09;;;;;;;52.27;27.70;;;;;;;-1.58;73.64;99719.43;2158677;82;21146;-78
2020/12/02 08:08:10;;;;;;;42.43;24.13;;;;;;;-1.52;73.85;99719.87;2158480;82;21603;-79
2020/12/02 08:11:11;;;;;;;45.90;26.13;;;;;;;-1.54;73.45;99713.75;2158224;82;21300;-78
2020/12/02 08:14:12;;;;;;;50.07;27.07;;;;;;;-1.55;73.51;99716.70;2158180;82;21535;-78
2020/12/02 08:17:13;;;;;;;48.73;25.73;;;;;;;-1.49;73.61;99722.27;2158283;82;21880;-79
2020/12/02 08:20:14;;;;;;;45.53;24.80;;;;;;;-1.43;73.60;99722.72;2158576;82;21306;-79
2020/12/02 08:23:15;;;;;;;48.30;26.33;;;;;;;-1.39;73.33;99716.14;2159463;82;21130;-79
2020/12/02 08:26:16;;;;;;;40.80;23.50;;;;;;;-1.43;72.82;99721.83;2158573;82;21878;-79
2020/12/02 08:29:17;;;;;;;41.27;23.67;;;;;;;-1.49;72.75;99720.10;2158497;82;21118;-78
2020/12/02 08:32:18;;;;;;;34.80;21.93;;;;;;;-1.44;72.70;99720.94;2158509;82;21329;-79
2020/12/02 08:35:19;;;;;;;44.30;21.27;;;;;;;-1.48;72.62;99721.49;2157896;82;21249;-80
2020/12/02 08:38:20;;;;;;;32.73;20.90;;;;;;;-1.39;72.74;99721.27;2157914;82;21259;-81
2020/12/02 08:41:22;;;;;;;35.07;21.27;;;;;;;-1.35;72.30;99715.59;2157882;82;21320;-79
2020/12/02 08:44:23;;;;;;;36.87;22.97;;;;;;;-1.39;72.04;99718.70;2158858;82;21377;-79
2020/12/02 08:47:24;;;;;;;33.73;20.23;;;;;;;-0.93;72.63;99720.70;2158132;82;21928;-78
2020/12/02 08:50:25;;;;;;;35.60;20.37;;;;;;;-1.09;71.05;99717.05;2158043;82;21285;-78
2020/12/02 08:53:26;;;;;;;33.10;20.73;;;;;;;-1.25;71.48;99726.10;2158685;82;21270;-79
2020/12/02 08:56:27;;;;;;;34.63;21.77;;;;;;;-1.32;71.48;99714.13;2158109;82;21241;-79
2020/12/02 08:59:28;;;;;;;30.33;17.30;;;;;;;-1.39;71.66;99712.30;2157212;82;21347;-78
2020/12/02 09:02:29;;;;;;;33.03;17.90;;;;;;;-1.39;71.57;99705.52;2172693;81;21300;-79
2020/12/02 09:05:32;;;;;;;38.33;23.67;;;;;;;-1.37;71.80;99705.23;2174435;81;21913;-79
2020/12/02 09:08:33;;;;;;;39.00;23.20;;;;;;;-1.35;72.00;99701.50;2174584;81;21264;-79
2020/12/02 09:11:34;;;;;;;33.53;21.97;;;;;;;-1.32;71.75;99702.61;2175221;81;21152;-78
2020/12/02 09:14:35;;;;;;;39.90;21.47;;;;;;;-1.30;72.04;99704.89;2174377;82;21114;-78
2020/12/02 09:17:36;;;;;;;40.80;24.73;;;;;;;-1.22;71.69;99699.03;2175493;81;21556;-81
2020/12/02 09:20:37;;;;;;;47.17;21.70;;;;;;;-1.13;71.71;99694.56;2175155;81;21602;-78
2020/12/02 09:23:39;;;;;;;39.73;22.77;;;;;;;-1.01;71.44;99693.25;2176312;81;21102;-79
2020/12/02 09:26:40;;;;;;;34.77;20.97;;;;;;;-1.02;70.88;99690.20;2175055;81;21238;-79
2020/12/02 09:29:43;;;;;;;335.83;36.90;;;;;;;-1.07;71.02;99698.84;2174345;82;21248;-78
2020/12/02 09:32:44;;;;;;;34.00;21.10;;;;;;;-1.03;71.20;99689.70;2174887;81;21415;-79
2020/12/02 09:35:45;;;;;;;28.83;17.40;;;;;;;-0.91;71.07;99689.27;2172780;81;21259;-81
2020/12/02 09:38:46;;;;;;;32.63;20.80;;;;;;;-0.92;70.06;99678.52;2175425;81;21306;-79
2020/12/02 09:41:47;;;;;;;37.43;21.80;;;;;;;-1.00;69.67;99674.14;2175483;81;21261;-80
2020/12/02 09:44:48;;;;;;;31.80;20.77;;;;;;;-1.08;70.69;99674.39;2175338;81;21888;-78
2020/12/02 09:47:49;;;;;;;40.07;22.77;;;;;;;-1.12;70.11;99666.88;2175147;81;21498;-79
2020/12/02 09:50:50;;;;;;;38.70;21.97;;;;;;;-1.20;70.33;99670.97;2175456;82;21307;-79
2020/12/02 09:53:53;;;;;;;30.93;20.03;;;;;;;-1.30;70.73;99666.86;2175277;82;21030;-78
2020/12/02 09:56:54;;;;;;;34.97;21.13;;;;;;;-1.31;70.86;99661.23;2174921;81;21273;-79
2020/12/02 09:59:55;;;;;;;32.67;20.53;;;;;;;-1.38;70.32;99659.91;2175282;81;21460;-78
2020/12/02 10:02:56;;;;;;;36.17;20.50;;;;;;;-1.42;70.66;99651.91;2175178;81;21153;-78
2020/12/02 10:05:58;;;;;;;31.30;18.30;;;;;;;-1.41;70.74;99650.73;2175133;81;21245;-78
2020/12/02 10:08:59;;;;;;;31.13;18.60;;;;;;;-1.53;70.67;99648.58;2175609;81;21245;-79
2020/12/02 10:12:00;;;;;;;36.47;23.10;;;;;;;-1.62;70.70;99655.59;2176601;81;21269;-77
2020/12/02 10:15:01;;;;;;;27.10;17.37;;;;;;;-1.64;70.96;99649.09;2176687;81;21701;-78
2020/12/02 10:18:02;;;;;;;33.13;23.87;;;;;;;-1.59;70.90;99640.45;2175769;81;21527;-78
2020/12/02 10:21:03;;;;;;;39.20;25.60;;;;;;;-1.55;71.08;99628.77;2174819;81;21252;-79
2020/12/02 10:24:04;;;;;;;33.90;20.00;;;;;;;-1.63;70.70;99628.22;2175173;81;21244;-78
2020/12/02 10:27:06;;;;;;;33.93;20.67;;;;;;;-1.70;70.92;99624.72;2175146;82;21264;-79
2020/12/02 10:30:07;;;;;;;32.27;19.03;;;;;;;-1.61;71.34;99621.53;2175551;82;21336;-79
2020/12/02 10:33:08;;;;;;;36.47;20.87;;;;;;;-1.53;71.16;99619.13;2175897;82;21885;-79
2020/12/02 10:36:09;;;;;;;35.60;20.87;;;;;;;-1.58;70.90;99617.91;2175896;81;21241;-80
2020/12/02 10:39:10;;;;;;;33.37;18.70;;;;;;;-1.53;71.17;99616.57;2176126;81;21232;-79
2020/12/02 10:42:12;;;;;;;31.63;20.20;;;;;;;-1.43;71.10;99611.31;2175712;82;21225;-79
2020/12/02 10:45:13;;;;;;;35.03;20.93;;;;;;;-1.36;70.97;99607.13;2176722;81;21269;-79
2020/12/02 10:48:14;;;;;;;42.07;23.10;;;;;;;-1.27;70.91;99607.27;2176283;81;21384;-78
2020/12/02 10:54:53;;;;;;;32.90;20.27;;;;;;;-0.90;71.09;99605.19;2176050;82;20999;-79
2020/12/02 10:57:54;;;;;;;37.17;21.43;;;;;;;-0.92;70.21;99598.19;2176681;81;21233;-79
2020/12/02 11:00:55;;;;;;;34.53;18.83;;;;;;;-0.91;70.44;99602.13;2173632;81;21142;-80
2020/12/02 11:03:56;;;;;;;34.37;20.77;;;;;;;-0.88;70.08;99601.06;2159665;82;21123;-79
2020/12/02 11:06:58;;;;;;;35.70;19.27;;;;;;;-0.98;69.83;99592.24;2159753;82;21264;-80
2020/12/02 11:09:59;;;;;;;31.43;20.97;;;;;;;-1.11;69.82;99588.34;2159735;82;21269;-79
2020/12/02 11:13:01;;;;;;;34.90;20.83;;;;;;;-1.20;70.08;99585.14;2159745;82;21118;-82
2020/12/02 11:16:02;;;;;;;28.60;19.43;;;;;;;-1.18;70.34;99583.58;2159977;82;21118;-80
2020/12/02 11:19:03;;;;;;;33.60;20.67;;;;;;;-1.18;70.08;99586.14;2160223;82;21110;-79
2020/12/02 11:22:04;;;;;;;32.90;20.17;;;;;;;-1.31;70.14;99581.45;2159616;82;21110;-81
2020/12/02 11:25:05;;;;;;;35.37;21.53;;;;;;;-1.37;70.01;99575.89;2159803;82;21123;-81
2020/12/02 11:28:06;;;;;;;33.23;21.30;;;;;;;-1.41;70.20;99567.50;2159798;82;21233;-80
2020/12/02 11:31:08;;;;;;;51.60;24.47;;;;;;;-1.48;70.53;99565.30;2159423;82;21300;-82
2020/12/02 11:34:09;;;;;;;33.30;21.30;;;;;;;-1.54;70.54;99569.98;2159697;82;21106;-82
2020/12/02 11:37:10;;;;;;;33.13;20.63;;;;;;;-1.67;70.50;99564.39;2159949;82;21706;-81
2020/12/02 11:40:11;;;;;;;34.87;19.87;;;;;;;-1.71;71.06;99567.52;2160092;82;21122;-81
2020/12/02 11:43:12;;;;;;;42.07;26.43;;;;;;;-1.67;70.69;99562.22;2160153;82;21244;-80
2020/12/02 11:46:14;;;;;;;47.57;28.27;;;;;;;-1.70;70.93;99565.84;2159069;82;21265;-81
2020/12/02 11:49:15;;;;;;;39.10;22.70;;;;;;;-1.70;71.20;99566.73;2160603;82;21107;-79
2020/12/02 11:52:16;;;;;;;34.37;21.27;;;;;;;-1.61;71.13;99562.27;2159639;82;21232;-79
2020/12/02 11:55:17;;;;;;;36.03;22.43;;;;;;;-1.56;71.06;99557.86;2159719;82;21397;-80
2020/12/02 11:58:18;;;;;;;53.70;23.80;;;;;;;-1.48;70.82;99548.65;2159082;82;21448;-80
2020/12/02 12:01:20;;;;;;;45.57;23.67;;;;;;;-1.45;70.69;99553.09;2162216;81;21157;-81
2020/12/02 12:04:21;;;;;;;34.67;21.70;;;;;;;-1.47;70.53;99553.38;2177020;81;21244;-80
2020/12/02 12:07:22;;;;;;;67.37;21.00;;;;;;;-1.49;70.84;99550.71;2177472;81;21113;-80
2020/12/02 12:10:23;;;;;;;39.27;23.40;;;;;;;-1.41;70.95;99553.80;2177358;81;21154;-82
2020/12/02 12:13:25;;;;;;;35.70;22.40;;;;;;;-1.44;70.61;99542.07;2178277;82;21240;-80
2020/12/02 12:16:26;;;;;;;35.63;21.73;;;;;;;-1.43;70.78;99542.17;2177746;82;21800;-79
2020/12/02 12:19:27;;;;;;;46.40;23.03;;;;;;;-1.36;70.92;99534.14;2178348;82;21240;-80
2020/12/02 12:22:28;;;;;;;39.37;22.17;;;;;;;-1.33;70.70;99527.95;2177724;81;21129;-81
2020/12/02 12:25:29;;;;;;;36.80;22.67;;;;;;;-1.27;70.49;99529.15;2177327;82;21233;-80
2020/12/02 12:28:31;;;;;;;37.07;20.60;;;;;;;-1.22;70.18;99528.68;2177196;81;21106;-79
2020/12/02 12:31:32;;;;;;;31.30;20.50;;;;;;;-1.23;70.11;99526.02;2176227;82;21161;-80
2020/12/02 12:34:34;;;;;;;36.43;20.37;;;;;;;-1.20;69.99;99527.50;2176747;82;21129;-79
2020/12/02 12:37:35;;;;;;;30.90;18.80;;;;;;;-1.21;69.79;99518.05;2176672;82;21113;-82
2020/12/02 12:40:36;;;;;;;43.03;24.00;;;;;;;-1.31;69.25;99525.09;2176455;81;21102;-81
2020/12/02 12:43:38;;;;;;;41.93;22.83;;;;;;;-1.34;70.25;99526.16;2176901;81;21236;-81
2020/12/02 12:46:39;;;;;;;37.97;22.27;;;;;;;-1.26;70.15;99513.00;2177236;82;21137;-80
2020/12/02 12:49:40;;;;;;;33.03;21.90;;;;;;;-0.80;74.34;99509.34;2176844;82;21236;-82
2020/12/02 12:52:41;;;;;;;54.20;23.07;;;;;;;-0.14;71.76;99501.30;2176516;82;21483;-81
2020/12/02 12:55:43;;;;;;;31.57;16.90;;;;;;;-0.10;68.46;99502.39;2176207;82;21114;-80
2020/12/02 12:58:44;;;;;;;35.70;21.43;;;;;;;-0.35;71.38;99497.36;2176691;82;21456;-80
2020/12/02 13:01:45;;;;;;;35.37;21.40;;;;;;;-0.12;67.86;99490.74;2171130;81;21166;-79
2020/12/02 13:04:46;;;;;;;39.53;21.97;;;;;;;-0.39;67.96;99490.26;2156326;82;21115;-80
2020/12/02 13:07:47;;;;;;;38.90;23.07;;;;;;;-0.54;67.78;99485.41;2156087;82;21122;-79
2020/12/02 13:10:48;;;;;;;41.53;21.63;;;;;;;-0.67;68.13;99483.33;2157292;82;21182;-79
2020/12/02 13:13:50;;;;;;;42.80;23.17;;;;;;;-0.74;68.36;99479.87;2157914;82;21241;-80
2020/12/02 13:16:51;;;;;;;36.40;22.40;;;;;;;-0.78;68.41;99475.33;2158463;82;21161;-80
2020/12/02 13:19:52;;;;;;;32.07;21.07;;;;;;;-0.32;68.76;99476.64;2158006;82;21233;-81
2020/12/02 13:22:53;;;;;;;34.00;21.67;;;;;;;-0.42;68.10;99468.26;2156970;82;21229;-81
2020/12/02 13:25:54;;;;;;;66.57;41.00;;;;;;;-0.56;67.61;99464.80;2158685;82;21295;-80
2020/12/02 13:28:56;;;;;;;32.93;21.63;;;;;;;-0.70;68.01;99471.59;2158326;82;21111;-78
2020/12/02 13:31:57;;;;;;;33.53;21.43;;;;;;;-0.78;68.32;99474.05;2159340;82;21198;-79
2020/12/02 13:34:58;;;;;;;34.37;21.40;;;;;;;-0.83;68.29;99464.27;2159064;82;21879;-79
2020/12/02 13:37:59;;;;;;;31.70;21.53;;;;;;;-0.85;67.99;99465.45;2158503;82;21456;-79
2020/12/02 13:41:01;;;;;;;33.93;21.50;;;;;;;-0.98;68.01;99458.59;2158125;82;21130;-79
2020/12/02 13:44:02;;;;;;;35.67;21.10;;;;;;;-1.10;68.37;99456.89;2159154;82;21144;-78
2020/12/02 13:47:03;;;;;;;31.00;20.80;;;;;;;-1.23;68.67;99455.58;2159081;82;21840;-77
2020/12/02 13:50:05;;;;;;;35.73;21.60;;;;;;;-1.37;68.75;99452.08;2159082;82;21737;-79
2020/12/02 13:53:06;;;;;;;32.00;20.37;;;;;;;-1.48;69.08;99444.95;2160717;82;21196;-79
2020/12/02 13:56:07;;;;;;;33.20;21.00;;;;;;;-1.59;69.37;99442.44;2159687;82;21107;-79
2020/12/02 13:59:09;;;;;;;32.73;20.67;;;;;;;-1.60;69.73;99447.95;2160225;82;21127;-79